sensor_id;sensor_type;location;lat;lon;timestamp;temperature;humidity
3868;DHT22;1949;48.152;11.528;2023-11-19T00:00:31;11.70;49.00
3868;DHT22;1949;48.152;11.528;2023-11-19T00:02:59;11.80;49.40
3868;DHT22;1949;48.152;11.528;2023-11-19T00:05:30;11.70;49.30
3868;DHT22;1949;48.152;11.528;2023-11-19T00:07:57;11.80;49.30
3868;DHT22;1949;48.152;11.528;2023-11-19T00:10:26;11.70;49.30
3868;DHT22;1949;48.152;11.528;2023-11-19T00:12:52;11.80;49.30
3868;DHT22;1949;48.152;11.528;2023-11-19T00:15:18;11.70;49.30
3868;DHT22;1949;48.152;11.528;2023-11-19T00:17:49;11.70;49.40
3868;DHT22;1949;48.152;11.528;2023-11-19T00:20:19;11.70;49.60
3868;DHT22;1949;48.152;11.528;2023-11-19T00:22:47;11.70;49.60
3868;DHT22;1949;48.152;11.528;2023-11-19T00:25:16;11.80;49.60
3868;DHT22;1949;48.152;11.528;2023-11-19T00:27:42;11.80;49.40
3868;DHT22;1949;48.152;11.528;2023-11-19T00:30:10;11.80;49.60
3868;DHT22;1949;48.152;11.528;2023-11-19T00:32:36;11.80;49.60
3868;DHT22;1949;48.152;11.528;2023-11-19T00:35:05;11.80;49.60
3868;DHT22;1949;48.152;11.528;2023-11-19T00:37:31;11.80;49.70
3868;DHT22;1949;48.152;11.528;2023-11-19T00:39:57;11.80;49.60
3868;DHT22;1949;48.152;11.528;2023-11-19T00:42:23;11.80;49.70
3868;DHT22;1949;48.152;11.528;2023-11-19T00:44:52;11.80;49.80
3868;DHT22;1949;48.152;11.528;2023-11-19T00:47:18;11.80;49.80
3868;DHT22;1949;48.152;11.528;2023-11-19T00:49:47;11.80;49.80
3868;DHT22;1949;48.152;11.528;2023-11-19T00:52:16;11.80;49.90
3868;DHT22;1949;48.152;11.528;2023-11-19T00:54:43;11.90;50.00
3868;DHT22;1949;48.152;11.528;2023-11-19T00:57:09;11.90;50.00
3868;DHT22;1949;48.152;11.528;2023-11-19T00:59:35;11.90;49.90
3868;DHT22;1949;48.152;11.528;2023-11-19T01:02:00;11.90;49.80
3868;DHT22;1949;48.152;11.528;2023-11-19T01:04:29;11.80;49.90
3868;DHT22;1949;48.152;11.528;2023-11-19T01:06:55;11.70;49.80
3868;DHT22;1949;48.152;11.528;2023-11-19T01:09:21;11.70;49.80
3868;DHT22;1949;48.152;11.528;2023-11-19T01:11:48;11.60;50.00
3868;DHT22;1949;48.152;11.528;2023-11-19T01:14:27;11.50;50.20
3868;DHT22;1949;48.152;11.528;2023-11-19T01:16:52;11.40;50.20
3868;DHT22;1949;48.152;11.528;2023-11-19T01:19:26;11.30;50.10
3868;DHT22;1949;48.152;11.528;2023-11-19T01:21:57;11.30;50.50
3868;DHT22;1949;48.152;11.528;2023-11-19T01:24:23;11.30;50.60
3868;DHT22;1949;48.152;11.528;2023-11-19T01:26:49;11.20;50.50
3868;DHT22;1949;48.152;11.528;2023-11-19T01:29:15;11.10;50.50
3868;DHT22;1949;48.152;11.528;2023-11-19T01:31:41;11.10;50.70
3868;DHT22;1949;48.152;11.528;2023-11-19T01:34:08;11.10;50.90
3868;DHT22;1949;48.152;11.528;2023-11-19T01:36:34;11.10;51.10
3868;DHT22;1949;48.152;11.528;2023-11-19T01:39:02;11.10;51.10
3868;DHT22;1949;48.152;11.528;2023-11-19T01:41:29;11.10;51.30
3868;DHT22;1949;48.152;11.528;2023-11-19T01:43:59;11.20;51.40
3868;DHT22;1949;48.152;11.528;2023-11-19T01:46:25;11.10;51.20
3868;DHT22;1949;48.152;11.528;2023-11-19T01:48:52;11.20;51.20
3868;DHT22;1949;48.152;11.528;2023-11-19T01:51:21;11.10;51.30
3868;DHT22;1949;48.152;11.528;2023-11-19T01:53:48;11.20;51.50
3868;DHT22;1949;48.152;11.528;2023-11-19T01:56:15;11.20;51.50
3868;DHT22;1949;48.152;11.528;2023-11-19T01:58:43;11.10;51.50
3868;DHT22;1949;48.152;11.528;2023-11-19T02:01:13;11.10;51.70
3868;DHT22;1949;48.152;11.528;2023-11-19T02:03:45;11.20;51.90
3868;DHT22;1949;48.152;11.528;2023-11-19T02:06:13;11.20;52.00
3868;DHT22;1949;48.152;11.528;2023-11-19T02:08:46;11.20;51.90
3868;DHT22;1949;48.152;11.528;2023-11-19T02:11:15;11.30;52.00
3868;DHT22;1949;48.152;11.528;2023-11-19T02:13:41;11.30;52.10
3868;DHT22;1949;48.152;11.528;2023-11-19T02:16:07;11.40;52.10
3868;DHT22;1949;48.152;11.528;2023-11-19T02:18:35;11.40;52.00
3868;DHT22;1949;48.152;11.528;2023-11-19T02:21:00;11.40;51.90
3868;DHT22;1949;48.152;11.528;2023-11-19T02:23:28;11.40;52.10
3868;DHT22;1949;48.152;11.528;2023-11-19T02:26:16;11.50;52.30
3868;DHT22;1949;48.152;11.528;2023-11-19T02:28:43;11.50;52.20
3868;DHT22;1949;48.152;11.528;2023-11-19T02:31:10;11.50;52.30
3868;DHT22;1949;48.152;11.528;2023-11-19T02:33:37;11.50;52.40
3868;DHT22;1949;48.152;11.528;2023-11-19T02:36:05;11.60;52.60
3868;DHT22;1949;48.152;11.528;2023-11-19T02:38:32;11.60;52.60
3868;DHT22;1949;48.152;11.528;2023-11-19T02:41:00;11.70;52.80
3868;DHT22;1949;48.152;11.528;2023-11-19T02:43:33;11.70;52.90
3868;DHT22;1949;48.152;11.528;2023-11-19T02:46:03;11.70;52.90
3868;DHT22;1949;48.152;11.528;2023-11-19T02:48:37;11.80;53.00
3868;DHT22;1949;48.152;11.528;2023-11-19T02:51:03;11.90;53.10
3868;DHT22;1949;48.152;11.528;2023-11-19T02:53:32;11.90;53.10
3868;DHT22;1949;48.152;11.528;2023-11-19T02:55:58;12.00;53.30
3868;DHT22;1949;48.152;11.528;2023-11-19T02:58:33;12.00;53.20
3868;DHT22;1949;48.152;11.528;2023-11-19T03:01:01;12.10;53.30
3868;DHT22;1949;48.152;11.528;2023-11-19T03:03:35;12.10;53.30
3868;DHT22;1949;48.152;11.528;2023-11-19T03:06:06;12.20;53.40
3868;DHT22;1949;48.152;11.528;2023-11-19T03:08:35;12.20;53.40
3868;DHT22;1949;48.152;11.528;2023-11-19T03:11:01;12.20;53.50
3868;DHT22;1949;48.152;11.528;2023-11-19T03:13:27;12.20;53.50
3868;DHT22;1949;48.152;11.528;2023-11-19T03:15:53;12.30;53.70
3868;DHT22;1949;48.152;11.528;2023-11-19T03:18:19;12.30;53.80
3868;DHT22;1949;48.152;11.528;2023-11-19T03:20:46;12.40;53.80
3868;DHT22;1949;48.152;11.528;2023-11-19T03:23:12;12.40;53.80
3868;DHT22;1949;48.152;11.528;2023-11-19T03:25:38;12.50;53.90
3868;DHT22;1949;48.152;11.528;2023-11-19T03:28:05;12.50;54.00
3868;DHT22;1949;48.152;11.528;2023-11-19T03:30:38;12.50;54.00
3868;DHT22;1949;48.152;11.528;2023-11-19T03:33:04;12.60;54.20
3868;DHT22;1949;48.152;11.528;2023-11-19T03:35:30;12.60;54.00
3868;DHT22;1949;48.152;11.528;2023-11-19T03:38:03;12.70;54.10
3868;DHT22;1949;48.152;11.528;2023-11-19T03:40:30;12.70;54.70
3868;DHT22;1949;48.152;11.528;2023-11-19T03:42:56;12.70;54.10
3868;DHT22;1949;48.152;11.528;2023-11-19T03:45:24;12.80;54.30
3868;DHT22;1949;48.152;11.528;2023-11-19T03:47:50;12.80;54.30
3868;DHT22;1949;48.152;11.528;2023-11-19T03:50:17;12.80;54.30
3868;DHT22;1949;48.152;11.528;2023-11-19T03:52:46;12.90;54.40
3868;DHT22;1949;48.152;11.528;2023-11-19T03:55:11;12.90;54.40
3868;DHT22;1949;48.152;11.528;2023-11-19T03:57:39;12.90;54.50
3868;DHT22;1949;48.152;11.528;2023-11-19T04:00:05;13.00;54.60
3868;DHT22;1949;48.152;11.528;2023-11-19T04:02:39;13.00;54.70
3868;DHT22;1949;48.152;11.528;2023-11-19T04:05:06;13.00;54.70
3868;DHT22;1949;48.152;11.528;2023-11-19T04:07:35;13.00;54.70
3868;DHT22;1949;48.152;11.528;2023-11-19T04:10:02;13.10;54.90
3868;DHT22;1949;48.152;11.528;2023-11-19T04:12:28;13.10;54.80
3868;DHT22;1949;48.152;11.528;2023-11-19T04:14:54;13.10;54.90
3868;DHT22;1949;48.152;11.528;2023-11-19T04:17:19;13.20;54.90
3868;DHT22;1949;48.152;11.528;2023-11-19T04:19:47;13.20;54.90
3868;DHT22;1949;48.152;11.528;2023-11-19T04:22:13;13.20;55.10
3868;DHT22;1949;48.152;11.528;2023-11-19T04:24:40;13.20;55.00
3868;DHT22;1949;48.152;11.528;2023-11-19T04:27:06;13.30;55.10
3868;DHT22;1949;48.152;11.528;2023-11-19T04:29:35;13.30;55.10
3868;DHT22;1949;48.152;11.528;2023-11-19T04:32:00;13.30;55.30
3868;DHT22;1949;48.152;11.528;2023-11-19T04:34:26;13.30;55.20
3868;DHT22;1949;48.152;11.528;2023-11-19T04:36:52;13.30;55.30
3868;DHT22;1949;48.152;11.528;2023-11-19T04:39:18;13.30;55.40
3868;DHT22;1949;48.152;11.528;2023-11-19T04:41:51;13.30;55.40
3868;DHT22;1949;48.152;11.528;2023-11-19T04:44:20;13.30;55.60
3868;DHT22;1949;48.152;11.528;2023-11-19T04:46:46;13.30;55.50
3868;DHT22;1949;48.152;11.528;2023-11-19T04:49:13;13.40;55.60
3868;DHT22;1949;48.152;11.528;2023-11-19T04:51:43;13.40;55.60
3868;DHT22;1949;48.152;11.528;2023-11-19T04:54:09;13.40;55.60
3868;DHT22;1949;48.152;11.528;2023-11-19T04:56:36;13.40;55.60
3868;DHT22;1949;48.152;11.528;2023-11-19T04:59:06;13.40;55.60
3868;DHT22;1949;48.152;11.528;2023-11-19T05:01:35;13.40;55.70
3868;DHT22;1949;48.152;11.528;2023-11-19T05:04:01;13.40;55.80
3868;DHT22;1949;48.152;11.528;2023-11-19T05:06:31;13.40;55.80
3868;DHT22;1949;48.152;11.528;2023-11-19T05:08:59;13.40;56.00
3868;DHT22;1949;48.152;11.528;2023-11-19T05:11:35;13.50;56.10
3868;DHT22;1949;48.152;11.528;2023-11-19T05:14:02;13.50;55.90
3868;DHT22;1949;48.152;11.528;2023-11-19T05:16:31;13.50;56.00
3868;DHT22;1949;48.152;11.528;2023-11-19T05:18:57;13.50;56.10
3868;DHT22;1949;48.152;11.528;2023-11-19T05:21:23;13.50;56.00
3868;DHT22;1949;48.152;11.528;2023-11-19T05:23:49;13.50;56.00
3868;DHT22;1949;48.152;11.528;2023-11-19T05:26:23;13.60;56.10
3868;DHT22;1949;48.152;11.528;2023-11-19T05:28:49;13.60;56.20
3868;DHT22;1949;48.152;11.528;2023-11-19T05:31:16;13.60;56.10
3868;DHT22;1949;48.152;11.528;2023-11-19T05:33:42;13.60;56.20
3868;DHT22;1949;48.152;11.528;2023-11-19T05:36:08;13.60;56.20
3868;DHT22;1949;48.152;11.528;2023-11-19T05:38:35;13.60;56.20
3868;DHT22;1949;48.152;11.528;2023-11-19T05:41:02;13.60;56.30
3868;DHT22;1949;48.152;11.528;2023-11-19T05:43:28;13.60;56.20
3868;DHT22;1949;48.152;11.528;2023-11-19T05:45:53;13.60;56.20
3868;DHT22;1949;48.152;11.528;2023-11-19T05:48:19;13.60;56.40
3868;DHT22;1949;48.152;11.528;2023-11-19T05:50:45;13.60;56.30
3868;DHT22;1949;48.152;11.528;2023-11-19T05:53:11;13.60;56.40
3868;DHT22;1949;48.152;11.528;2023-11-19T05:55:41;13.60;56.40
3868;DHT22;1949;48.152;11.528;2023-11-19T05:58:14;13.60;56.40
3868;DHT22;1949;48.152;11.528;2023-11-19T06:00:40;13.60;56.40
3868;DHT22;1949;48.152;11.528;2023-11-19T06:03:07;13.50;56.50
3868;DHT22;1949;48.152;11.528;2023-11-19T06:05:34;13.60;56.60
3868;DHT22;1949;48.152;11.528;2023-11-19T06:07:59;13.60;56.60
3868;DHT22;1949;48.152;11.528;2023-11-19T06:10:25;13.60;56.60
3868;DHT22;1949;48.152;11.528;2023-11-19T06:13:00;13.60;56.60
3868;DHT22;1949;48.152;11.528;2023-11-19T06:15:30;13.60;56.60
3868;DHT22;1949;48.152;11.528;2023-11-19T06:17:56;13.60;56.70
3868;DHT22;1949;48.152;11.528;2023-11-19T06:20:24;13.60;56.70
3868;DHT22;1949;48.152;11.528;2023-11-19T06:22:50;13.70;56.70
3868;DHT22;1949;48.152;11.528;2023-11-19T06:25:16;13.70;56.80
3868;DHT22;1949;48.152;11.528;2023-11-19T06:27:42;13.60;56.70
3868;DHT22;1949;48.152;11.528;2023-11-19T06:30:08;13.60;56.80
3868;DHT22;1949;48.152;11.528;2023-11-19T06:32:35;13.60;56.90
3868;DHT22;1949;48.152;11.528;2023-11-19T06:35:00;13.60;56.80
3868;DHT22;1949;48.152;11.528;2023-11-19T06:37:26;13.60;57.00
3868;DHT22;1949;48.152;11.528;2023-11-19T06:39:52;13.70;57.00
3868;DHT22;1949;48.152;11.528;2023-11-19T06:42:18;13.70;56.90
3868;DHT22;1949;48.152;11.528;2023-11-19T06:44:44;13.70;57.00
3868;DHT22;1949;48.152;11.528;2023-11-19T06:47:09;13.70;57.10
3868;DHT22;1949;48.152;11.528;2023-11-19T06:49:36;13.70;57.00
3868;DHT22;1949;48.152;11.528;2023-11-19T06:52:03;13.70;57.00
3868;DHT22;1949;48.152;11.528;2023-11-19T06:54:31;13.70;57.10
3868;DHT22;1949;48.152;11.528;2023-11-19T06:56:57;13.70;57.20
3868;DHT22;1949;48.152;11.528;2023-11-19T06:59:23;13.70;57.20
3868;DHT22;1949;48.152;11.528;2023-11-19T07:01:49;13.70;57.20
3868;DHT22;1949;48.152;11.528;2023-11-19T07:04:17;13.70;57.20
3868;DHT22;1949;48.152;11.528;2023-11-19T07:06:42;13.70;57.30
3868;DHT22;1949;48.152;11.528;2023-11-19T07:09:10;13.80;57.40
3868;DHT22;1949;48.152;11.528;2023-11-19T07:11:40;13.80;57.40
3868;DHT22;1949;48.152;11.528;2023-11-19T07:14:07;13.80;57.50
3868;DHT22;1949;48.152;11.528;2023-11-19T07:16:35;13.80;57.60
3868;DHT22;1949;48.152;11.528;2023-11-19T07:19:03;13.80;57.50
3868;DHT22;1949;48.152;11.528;2023-11-19T07:21:29;13.80;57.50
3868;DHT22;1949;48.152;11.528;2023-11-19T07:23:55;13.80;57.60
3868;DHT22;1949;48.152;11.528;2023-11-19T07:26:22;13.80;57.60
3868;DHT22;1949;48.152;11.528;2023-11-19T07:28:50;13.80;57.60
3868;DHT22;1949;48.152;11.528;2023-11-19T07:31:16;13.90;57.80
3868;DHT22;1949;48.152;11.528;2023-11-19T07:33:45;13.90;57.70
3868;DHT22;1949;48.152;11.528;2023-11-19T07:36:11;13.90;57.70
3868;DHT22;1949;48.152;11.528;2023-11-19T07:38:39;13.80;58.20
3868;DHT22;1949;48.152;11.528;2023-11-19T07:41:06;13.90;57.80
3868;DHT22;1949;48.152;11.528;2023-11-19T07:43:34;13.90;57.90
3868;DHT22;1949;48.152;11.528;2023-11-19T07:46:00;13.90;57.80
3868;DHT22;1949;48.152;11.528;2023-11-19T07:48:26;13.90;57.80
3868;DHT22;1949;48.152;11.528;2023-11-19T07:50:53;13.90;57.90
3868;DHT22;1949;48.152;11.528;2023-11-19T07:53:19;14.00;58.00
3868;DHT22;1949;48.152;11.528;2023-11-19T07:55:46;14.00;58.00
3868;DHT22;1949;48.152;11.528;2023-11-19T07:58:12;14.00;58.00
3868;DHT22;1949;48.152;11.528;2023-11-19T08:00:38;14.00;58.00
3868;DHT22;1949;48.152;11.528;2023-11-19T08:03:07;14.10;58.00
3868;DHT22;1949;48.152;11.528;2023-11-19T08:05:33;14.10;58.10
3868;DHT22;1949;48.152;11.528;2023-11-19T08:07:59;14.10;58.10
3868;DHT22;1949;48.152;11.528;2023-11-19T08:10:26;14.10;58.10
3868;DHT22;1949;48.152;11.528;2023-11-19T08:12:53;14.10;58.10
3868;DHT22;1949;48.152;11.528;2023-11-19T08:15:24;14.10;58.10
3868;DHT22;1949;48.152;11.528;2023-11-19T08:17:50;14.20;58.20
3868;DHT22;1949;48.152;11.528;2023-11-19T08:20:19;14.20;58.20
3868;DHT22;1949;48.152;11.528;2023-11-19T08:22:45;14.20;58.10
3868;DHT22;1949;48.152;11.528;2023-11-19T08:25:13;14.20;58.20
3868;DHT22;1949;48.152;11.528;2023-11-19T08:27:38;14.20;58.20
3868;DHT22;1949;48.152;11.528;2023-11-19T08:30:05;14.20;58.80
3868;DHT22;1949;48.152;11.528;2023-11-19T08:32:31;14.30;58.30
3868;DHT22;1949;48.152;11.528;2023-11-19T08:34:57;14.30;58.30
3868;DHT22;1949;48.152;11.528;2023-11-19T08:37:23;14.40;58.40
3868;DHT22;1949;48.152;11.528;2023-11-19T08:39:50;14.40;58.30
3868;DHT22;1949;48.152;11.528;2023-11-19T08:42:19;14.40;58.30
3868;DHT22;1949;48.152;11.528;2023-11-19T08:44:49;14.40;58.30
3868;DHT22;1949;48.152;11.528;2023-11-19T08:47:16;14.40;58.30
3868;DHT22;1949;48.152;11.528;2023-11-19T08:49:44;14.40;58.30
3868;DHT22;1949;48.152;11.528;2023-11-19T08:52:10;14.50;58.90
3868;DHT22;1949;48.152;11.528;2023-11-19T08:54:38;14.50;58.30
3868;DHT22;1949;48.152;11.528;2023-11-19T08:57:04;14.50;58.40
3868;DHT22;1949;48.152;11.528;2023-11-19T08:59:30;14.50;58.30
3868;DHT22;1949;48.152;11.528;2023-11-19T09:01:55;14.50;58.30
3868;DHT22;1949;48.152;11.528;2023-11-19T09:04:21;14.50;58.30
3868;DHT22;1949;48.152;11.528;2023-11-19T09:06:50;14.60;58.40
3868;DHT22;1949;48.152;11.528;2023-11-19T09:09:16;14.60;58.40
3868;DHT22;1949;48.152;11.528;2023-11-19T09:11:42;14.60;58.40
3868;DHT22;1949;48.152;11.528;2023-11-19T09:14:22;14.60;58.40
3868;DHT22;1949;48.152;11.528;2023-11-19T09:16:53;14.60;58.40
3868;DHT22;1949;48.152;11.528;2023-11-19T09:19:18;14.60;58.30
3868;DHT22;1949;48.152;11.528;2023-11-19T09:21:44;14.70;58.50
3868;DHT22;1949;48.152;11.528;2023-11-19T09:24:10;14.70;58.50
3868;DHT22;1949;48.152;11.528;2023-11-19T09:26:36;14.70;58.50
3868;DHT22;1949;48.152;11.528;2023-11-19T09:29:04;14.70;58.50
3868;DHT22;1949;48.152;11.528;2023-11-19T09:31:30;14.70;58.40
3868;DHT22;1949;48.152;11.528;2023-11-19T09:33:56;14.70;58.50
3868;DHT22;1949;48.152;11.528;2023-11-19T09:36:22;14.70;58.50
3868;DHT22;1949;48.152;11.528;2023-11-19T09:38:48;14.70;58.50
3868;DHT22;1949;48.152;11.528;2023-11-19T09:41:14;14.70;58.50
3868;DHT22;1949;48.152;11.528;2023-11-19T09:43:41;14.80;58.60
3868;DHT22;1949;48.152;11.528;2023-11-19T09:46:09;14.80;58.60
3868;DHT22;1949;48.152;11.528;2023-11-19T09:48:38;14.80;58.70
3868;DHT22;1949;48.152;11.528;2023-11-19T09:51:06;14.90;58.80
3868;DHT22;1949;48.152;11.528;2023-11-19T09:53:32;14.80;58.60
3868;DHT22;1949;48.152;11.528;2023-11-19T09:56:05;14.90;58.70
3868;DHT22;1949;48.152;11.528;2023-11-19T09:58:31;14.90;58.70
3868;DHT22;1949;48.152;11.528;2023-11-19T10:01:01;14.90;58.80
3868;DHT22;1949;48.152;11.528;2023-11-19T10:03:34;14.90;58.80
3868;DHT22;1949;48.152;11.528;2023-11-19T10:06:06;14.90;58.70
3868;DHT22;1949;48.152;11.528;2023-11-19T10:08:32;14.90;58.70
3868;DHT22;1949;48.152;11.528;2023-11-19T10:11:04;14.90;58.70
3868;DHT22;1949;48.152;11.528;2023-11-19T10:13:41;15.00;58.90
3868;DHT22;1949;48.152;11.528;2023-11-19T10:16:17;15.00;58.90
3868;DHT22;1949;48.152;11.528;2023-11-19T10:18:46;15.10;59.00
3868;DHT22;1949;48.152;11.528;2023-11-19T10:21:15;15.10;58.80
3868;DHT22;1949;48.152;11.528;2023-11-19T10:23:56;15.10;58.80
3868;DHT22;1949;48.152;11.528;2023-11-19T10:26:26;15.10;58.80
3868;DHT22;1949;48.152;11.528;2023-11-19T10:28:52;15.20;58.90
3868;DHT22;1949;48.152;11.528;2023-11-19T10:31:20;15.20;58.80
3868;DHT22;1949;48.152;11.528;2023-11-19T10:33:50;15.20;58.80
3868;DHT22;1949;48.152;11.528;2023-11-19T10:36:17;15.30;58.80
3868;DHT22;1949;48.152;11.528;2023-11-19T10:39:01;15.30;58.70
3868;DHT22;1949;48.152;11.528;2023-11-19T10:41:32;15.40;58.90
3868;DHT22;1949;48.152;11.528;2023-11-19T10:43:59;15.40;58.80
3868;DHT22;1949;48.152;11.528;2023-11-19T10:46:39;15.40;58.80
3868;DHT22;1949;48.152;11.528;2023-11-19T10:49:08;15.50;58.80
3868;DHT22;1949;48.152;11.528;2023-11-19T10:51:34;15.60;58.90
3868;DHT22;1949;48.152;11.528;2023-11-19T10:54:06;15.60;58.80
3868;DHT22;1949;48.152;11.528;2023-11-19T10:56:33;15.70;58.80
3868;DHT22;1949;48.152;11.528;2023-11-19T10:59:00;15.70;58.70
3868;DHT22;1949;48.152;11.528;2023-11-19T11:01:45;15.70;58.60
3868;DHT22;1949;48.152;11.528;2023-11-19T11:04:14;15.80;58.60
3868;DHT22;1949;48.152;11.528;2023-11-19T11:06:43;15.80;58.50
3868;DHT22;1949;48.152;11.528;2023-11-19T11:09:13;15.80;58.40
3868;DHT22;1949;48.152;11.528;2023-11-19T11:11:47;15.80;58.50
3868;DHT22;1949;48.152;11.528;2023-11-19T11:14:13;15.90;58.50
3868;DHT22;1949;48.152;11.528;2023-11-19T11:16:43;15.90;58.40
3868;DHT22;1949;48.152;11.528;2023-11-19T11:19:13;15.90;58.30
3868;DHT22;1949;48.152;11.528;2023-11-19T11:21:41;15.90;58.40
3868;DHT22;1949;48.152;11.528;2023-11-19T11:27:10;15.90;58.50
3868;DHT22;1949;48.152;11.528;2023-11-19T11:33:04;16.10;58.40
3868;DHT22;1949;48.152;11.528;2023-11-19T11:38:59;16.20;58.20
3868;DHT22;1949;48.152;11.528;2023-11-19T11:41:38;16.30;58.20
3868;DHT22;1949;48.152;11.528;2023-11-19T11:44:04;16.40;58.30
3868;DHT22;1949;48.152;11.528;2023-11-19T11:49:10;16.60;58.10
3868;DHT22;1949;48.152;11.528;2023-11-19T11:54:32;16.70;58.10
3868;DHT22;1949;48.152;11.528;2023-11-19T11:57:20;16.80;58.00
3868;DHT22;1949;48.152;11.528;2023-11-19T11:59:50;17.00;57.90
3868;DHT22;1949;48.152;11.528;2023-11-19T12:02:21;17.10;57.90
3868;DHT22;1949;48.152;11.528;2023-11-19T12:04:52;17.20;57.70
3868;DHT22;1949;48.152;11.528;2023-11-19T12:07:20;17.40;57.70
3868;DHT22;1949;48.152;11.528;2023-11-19T12:09:48;17.50;57.40
3868;DHT22;1949;48.152;11.528;2023-11-19T12:12:22;17.60;57.30
3868;DHT22;1949;48.152;11.528;2023-11-19T12:17:37;17.90;57.00
3868;DHT22;1949;48.152;11.528;2023-11-19T12:20:06;18.00;57.00
3868;DHT22;1949;48.152;11.528;2023-11-19T12:22:41;18.10;56.60
3868;DHT22;1949;48.152;11.528;2023-11-19T12:25:08;18.10;56.20
3868;DHT22;1949;48.152;11.528;2023-11-19T12:27:41;18.10;56.20
3868;DHT22;1949;48.152;11.528;2023-11-19T12:30:08;18.20;56.30
3868;DHT22;1949;48.152;11.528;2023-11-19T12:32:45;18.30;56.30
3868;DHT22;1949;48.152;11.528;2023-11-19T12:35:12;18.40;56.10
3868;DHT22;1949;48.152;11.528;2023-11-19T12:40:21;18.40;55.60
3868;DHT22;1949;48.152;11.528;2023-11-19T12:42:48;18.40;55.60
3868;DHT22;1949;48.152;11.528;2023-11-19T12:45:14;18.50;55.70
3868;DHT22;1949;48.152;11.528;2023-11-19T12:47:44;18.60;55.70
3868;DHT22;1949;48.152;11.528;2023-11-19T12:50:14;18.70;55.30
3868;DHT22;1949;48.152;11.528;2023-11-19T12:52:57;18.80;55.50
3868;DHT22;1949;48.152;11.528;2023-11-19T12:55:28;18.90;55.40
3868;DHT22;1949;48.152;11.528;2023-11-19T12:57:54;19.00;54.60
3868;DHT22;1949;48.152;11.528;2023-11-19T13:00:25;19.00;54.50
3868;DHT22;1949;48.152;11.528;2023-11-19T13:03:04;18.90;54.60
3868;DHT22;1949;48.152;11.528;2023-11-19T13:05:32;18.90;54.50
3868;DHT22;1949;48.152;11.528;2023-11-19T13:08:08;18.80;54.20
3868;DHT22;1949;48.152;11.528;2023-11-19T13:10:53;18.70;54.30
3868;DHT22;1949;48.152;11.528;2023-11-19T13:13:21;18.50;54.30
3868;DHT22;1949;48.152;11.528;2023-11-19T13:15:47;18.40;54.30
3868;DHT22;1949;48.152;11.528;2023-11-19T13:18:16;18.20;54.50
3868;DHT22;1949;48.152;11.528;2023-11-19T13:20:42;18.10;54.50
3868;DHT22;1949;48.152;11.528;2023-11-19T13:23:08;18.00;54.70
3868;DHT22;1949;48.152;11.528;2023-11-19T13:25:33;17.90;54.70
3868;DHT22;1949;48.152;11.528;2023-11-19T13:27:59;17.90;54.80
3868;DHT22;1949;48.152;11.528;2023-11-19T13:30:26;17.80;54.90
3868;DHT22;1949;48.152;11.528;2023-11-19T13:32:52;17.70;54.80
3868;DHT22;1949;48.152;11.528;2023-11-19T13:35:20;17.60;54.90
3868;DHT22;1949;48.152;11.528;2023-11-19T13:37:47;17.60;55.00
3868;DHT22;1949;48.152;11.528;2023-11-19T13:40:13;17.50;55.10
3868;DHT22;1949;48.152;11.528;2023-11-19T13:42:45;17.50;55.00
3868;DHT22;1949;48.152;11.528;2023-11-19T13:45:12;17.40;55.00
3868;DHT22;1949;48.152;11.528;2023-11-19T13:47:42;17.30;54.90
3868;DHT22;1949;48.152;11.528;2023-11-19T13:50:13;17.20;55.00
3868;DHT22;1949;48.152;11.528;2023-11-19T13:52:41;17.20;55.30
3868;DHT22;1949;48.152;11.528;2023-11-19T13:55:14;17.10;55.40
3868;DHT22;1949;48.152;11.528;2023-11-19T13:57:40;17.10;55.30
3868;DHT22;1949;48.152;11.528;2023-11-19T14:00:08;17.10;55.50
3868;DHT22;1949;48.152;11.528;2023-11-19T14:02:46;17.10;55.60
3868;DHT22;1949;48.152;11.528;2023-11-19T14:05:13;17.00;55.40
3868;DHT22;1949;48.152;11.528;2023-11-19T14:07:39;17.00;55.60
3868;DHT22;1949;48.152;11.528;2023-11-19T14:10:12;17.00;55.50
3868;DHT22;1949;48.152;11.528;2023-11-19T14:12:38;17.00;55.50
3868;DHT22;1949;48.152;11.528;2023-11-19T14:15:10;16.90;55.50
3868;DHT22;1949;48.152;11.528;2023-11-19T14:17:38;16.90;55.60
3868;DHT22;1949;48.152;11.528;2023-11-19T14:20:05;16.90;55.60
3868;DHT22;1949;48.152;11.528;2023-11-19T14:22:47;16.90;55.60
3868;DHT22;1949;48.152;11.528;2023-11-19T14:25:18;16.80;55.70
3868;DHT22;1949;48.152;11.528;2023-11-19T14:27:44;16.80;55.70
3868;DHT22;1949;48.152;11.528;2023-11-19T14:30:12;16.70;55.70
3868;DHT22;1949;48.152;11.528;2023-11-19T14:32:42;16.70;55.70
3868;DHT22;1949;48.152;11.528;2023-11-19T14:35:40;16.70;55.80
3868;DHT22;1949;48.152;11.528;2023-11-19T14:38:05;16.70;55.80
3868;DHT22;1949;48.152;11.528;2023-11-19T14:40:35;16.60;55.90
3868;DHT22;1949;48.152;11.528;2023-11-19T14:43:00;16.70;56.00
3868;DHT22;1949;48.152;11.528;2023-11-19T14:45:26;16.70;55.90
3868;DHT22;1949;48.152;11.528;2023-11-19T14:47:52;16.70;55.90
3868;DHT22;1949;48.152;11.528;2023-11-19T14:50:18;16.70;55.80
3868;DHT22;1949;48.152;11.528;2023-11-19T14:52:43;16.70;55.80
3868;DHT22;1949;48.152;11.528;2023-11-19T14:55:10;16.70;55.80
3868;DHT22;1949;48.152;11.528;2023-11-19T14:57:36;16.70;55.80
3868;DHT22;1949;48.152;11.528;2023-11-19T15:00:28;16.70;55.80
3868;DHT22;1949;48.152;11.528;2023-11-19T15:02:54;16.60;55.70
3868;DHT22;1949;48.152;11.528;2023-11-19T15:08:45;16.70;55.80
3868;DHT22;1949;48.152;11.528;2023-11-19T15:11:10;16.60;55.70
3868;DHT22;1949;48.152;11.528;2023-11-19T15:13:37;16.60;55.70
3868;DHT22;1949;48.152;11.528;2023-11-19T15:16:04;16.60;55.60
3868;DHT22;1949;48.152;11.528;2023-11-19T15:22:20;16.50;55.60
3868;DHT22;1949;48.152;11.528;2023-11-19T15:24:47;16.50;55.50
3868;DHT22;1949;48.152;11.528;2023-11-19T15:27:12;16.50;55.60
3868;DHT22;1949;48.152;11.528;2023-11-19T15:29:49;16.40;55.60
3868;DHT22;1949;48.152;11.528;2023-11-19T15:32:25;16.40;55.60
3868;DHT22;1949;48.152;11.528;2023-11-19T15:35:15;16.40;55.70
3868;DHT22;1949;48.152;11.528;2023-11-19T15:37:45;16.30;55.70
3868;DHT22;1949;48.152;11.528;2023-11-19T15:40:29;16.30;55.80
3868;DHT22;1949;48.152;11.528;2023-11-19T15:42:56;16.30;55.70
3868;DHT22;1949;48.152;11.528;2023-11-19T15:45:23;16.30;55.80
3868;DHT22;1949;48.152;11.528;2023-11-19T15:47:56;16.20;55.80
3868;DHT22;1949;48.152;11.528;2023-11-19T15:50:25;16.20;55.80
3868;DHT22;1949;48.152;11.528;2023-11-19T15:53:02;16.20;55.80
3868;DHT22;1949;48.152;11.528;2023-11-19T15:55:32;16.20;55.80
3868;DHT22;1949;48.152;11.528;2023-11-19T15:57:59;16.20;55.80
3868;DHT22;1949;48.152;11.528;2023-11-19T16:00:24;16.20;55.90
3868;DHT22;1949;48.152;11.528;2023-11-19T16:02:51;16.20;55.80
3868;DHT22;1949;48.152;11.528;2023-11-19T16:05:19;16.20;55.90
3868;DHT22;1949;48.152;11.528;2023-11-19T16:07:45;16.20;55.90
3868;DHT22;1949;48.152;11.528;2023-11-19T16:10:11;16.20;55.80
3868;DHT22;1949;48.152;11.528;2023-11-19T16:12:39;16.20;55.90
3868;DHT22;1949;48.152;11.528;2023-11-19T16:15:06;16.20;55.90
3868;DHT22;1949;48.152;11.528;2023-11-19T16:17:36;16.30;55.80
3868;DHT22;1949;48.152;11.528;2023-11-19T16:20:04;16.20;55.80